Pernell, Oklahoma
Current Conditions -  °F | °C
As of 3:15 AM on Friday 19 Dec 2014 (Local Time) from KPVJ Reporting Station
Haze Haze  
Wind Chill: 37°   Ceiling: 300
Heat Index: 40°   Visibility: 5mi
Dew Point: 40°   Wind: 5mph
Humidity: 99%   Direction: 50°NE
Pressure: 30.16"   Gusts: NA
Location:  34.56°N, 97.5°W
Report Text: KPVJ 190915Z AUTO 05004KT 5SM BR OVC003 05/04 A3016 RMK AO2 T00460044
Loading
Personal Weather Stations






























Interactive Weather Map New forecast layout! Learn more

10-Day Weather Forecast

Advertisements
Track Severe Weather on mobile